Gypsum, CO (81637)

9:44 AM MST on February 13, 2016 (GMT -0700)
Eagle County Regional | | Change Station
CLOSE
Current Station
Airport
Location: Eagle,
Elevation: 6539 ft
Nearby Weather Stations

Elev 6539 ft 39.64 °N, 106.91 °W | Updated 54 minutes ago

Partly Cloudy
Partly Cloudy
19 °F
Feels Like 19 °F
N
0
Wind Variable Wind from North

Today
High -- | Low -- °F
--% Chance of Precip.
Yesterday
High -- | Low -- °F
Precip. -- in
Pressure 30.32 in
Visibility 10.0 miles
Clouds Few 100 ft
Few 12000 ft
Dew Point 18 °F
Humidity 93%
Rainfall 0.00 in
Snow Depth Not available.
7:03 AM 5:41 PM
Waxing Crescent, 32% visible
METAR KEGE 131550Z 00000KT 10SM FEW001 FEW120 M07/M08 A3032 RMK FG BANK W
Pressure 30.32 in
Visibility 10.0 miles
Clouds Few 100 ft
Few 12000 ft
Dew Point 18 °F
Humidity 93%
Rainfall 0.00 in
Snow Depth Not available.
7:03 AM 5:41 PM
Waxing Crescent, 32% visible
METAR KEGE 131550Z 00000KT 10SM FEW001 FEW120 M07/M08 A3032 RMK FG BANK W

10-Day Weather Forecast

Almanac

Astronomy

Feb. 13, 2016 Rise Set
Actual Time
Civil Twilight
Nautical Twilight
Astronomical Twilight
Moon
Length of Visible Light
Length of Day
Tomorrow will be .
, % of the Moon is Illuminated

Today's Extremes

State Highs State Lows

Community

WunderPhotos

Upload Photos

1,892,604 photos uploaded!

WunderBlog® & News

Nearby

Air Quality

  Air Quality AQ Index Pollutant
Not available.

Snow Depth

Station Depth Elevation

Earthquake Activity

City Distance Mag. Time & Date
Minimum magnitude displayed is 2.5.

Coastal Water Temperatures

Place Temperature

Stations

Nearby Weather Stations

Station Location Temp. Windchill Dew Point Humidity Wind Precip. Elev Updated Type
                   

Watches & Warnings

There are currently no watches in effect.